createdAt,value
2019-05-09T00:02:39.262Z,93.24
2019-05-09T00:07:44.312Z,93.49
2019-05-09T00:12:49.358Z,93.79
2019-05-09T00:17:54.429Z,94.64
2019-05-09T00:22:59.443Z,94.87
2019-05-09T00:28:05.037Z,95.70
2019-05-09T00:33:10.148Z,96.06
2019-05-09T00:38:15.836Z,96.37
2019-05-09T00:43:20.925Z,96.28
2019-05-09T00:48:33.522Z,96.36
2019-05-09T00:53:38.150Z,96.42
2019-05-09T00:58:44.092Z,96.48
2019-05-09T01:03:50.198Z,96.19
2019-05-09T01:08:55.304Z,96.21
2019-05-09T01:14:00.309Z,95.95
2019-05-09T01:19:05.646Z,96.48
2019-05-09T01:24:10.664Z,96.48
2019-05-09T01:29:15.669Z,96.59
2019-05-09T01:34:24.293Z,96.56
2019-05-09T01:39:29.326Z,96.43
2019-05-09T01:44:34.368Z,96.48
2019-05-09T01:49:39.388Z,96.37
2019-05-09T01:54:46.008Z,96.40
2019-05-09T01:59:53.239Z,96.44
2019-05-09T02:04:58.364Z,96.45
2019-05-09T02:10:03.589Z,96.58
2019-05-09T02:15:34.226Z,96.16
2019-05-09T02:20:39.790Z,96.38
2019-05-09T02:25:45.121Z,96.24
2019-05-09T02:30:50.109Z,96.19
2019-05-09T02:35:58.255Z,96.39
2019-05-09T02:41:03.176Z,95.94
2019-05-09T02:46:33.307Z,95.89
2019-05-09T02:51:38.931Z,95.36
2019-05-09T02:56:44.414Z,95.03
2019-05-09T03:02:20.854Z,95.31
2019-05-09T03:07:48.266Z,95.04
2019-05-09T03:12:52.107Z,95.25
2019-05-09T03:17:59.971Z,95.27
2019-05-09T03:23:04.265Z,95.05
2019-05-09T03:28:18.411Z,95.16
2019-05-09T03:33:29.545Z,94.63
2019-05-09T03:38:37.611Z,94.68
2019-05-09T03:43:42.289Z,93.97
2019-05-09T03:48:50.715Z,93.83
2019-05-09T03:53:57.569Z,94.01
2019-05-09T03:59:02.598Z,93.89
2019-05-09T04:04:08.765Z,92.94
2019-05-09T04:09:14.039Z,92.59
2019-05-09T04:14:22.542Z,92.07
2019-05-09T04:19:27.766Z,91.76
2019-05-09T04:24:34.311Z,91.63
2019-05-09T04:29:39.415Z,91.00
2019-05-09T04:34:49.586Z,89.88
2019-05-09T04:39:59.470Z,89.58
2019-05-09T04:45:09.981Z,89.08
2019-05-09T04:50:15.294Z,88.68
2019-05-09T04:55:22.464Z,88.08
2019-05-09T05:00:37.661Z,87.78
2019-05-09T05:05:43.405Z,87.35
2019-05-09T05:10:48.595Z,86.80
2019-05-09T05:15:53.835Z,87.04
2019-05-09T05:20:58.948Z,87.24
2019-05-09T05:26:03.984Z,87.22
2019-05-09T05:31:09.363Z,87.39
2019-05-09T05:36:14.659Z,87.24
2019-05-09T05:41:19.726Z,87.48
2019-05-09T05:46:42.528Z,86.97
2019-05-09T05:51:50.588Z,86.40
2019-05-09T05:56:57.649Z,85.85
2019-05-09T06:02:02.332Z,85.52
2019-05-09T06:07:08.160Z,85.26
2019-05-09T06:12:13.415Z,86.54
2019-05-09T06:17:18.759Z,86.56
2019-05-09T06:22:33.388Z,86.86
2019-05-09T06:27:38.448Z,86.42
2019-05-09T06:32:43.622Z,86.04
2019-05-09T06:37:53.183Z,86.28
2019-05-09T06:42:59.964Z,85.78
2019-05-09T06:48:07.579Z,85.77
2019-05-09T06:53:14.351Z,85.52
2019-05-09T06:58:32.631Z,84.80
2019-05-09T07:03:39.613Z,83.75
2019-05-09T07:08:52.739Z,81.18
2019-05-09T07:13:59.359Z,81.03
2019-05-09T07:19:08.820Z,78.36
2019-05-09T07:24:18.983Z,78.06
2019-05-09T07:29:28.356Z,77.64
2019-05-09T07:34:44.726Z,76.87
2019-05-09T07:39:51.509Z,77.01
2019-05-09T07:44:59.122Z,77.11
2019-05-09T07:50:08.504Z,75.35
2019-05-09T07:55:17.878Z,75.75
2019-05-09T08:00:33.158Z,76.13
2019-05-09T08:05:39.945Z,75.25
2019-05-09T08:10:47.733Z,73.93
2019-05-09T08:15:54.555Z,72.40
2019-05-09T08:21:01.217Z,69.53
2019-05-09T08:26:08.786Z,69.58
2019-05-09T08:31:18.385Z,69.15
2019-05-09T08:36:25.067Z,69.24
2019-05-09T08:41:32.053Z,67.89
2019-05-09T08:46:41.632Z,67.76
2019-05-09T08:52:15.874Z,64.62
2019-05-09T08:57:10.797Z,65.60
2019-05-09T09:02:28.286Z,65.50
2019-05-09T09:07:37.718Z,64.03
2019-05-09T09:12:47.760Z,63.34
2019-05-09T09:17:53.043Z,61.82
2019-05-09T09:22:59.707Z,61.16
2019-05-09T09:28:04.877Z,60.73
2019-05-09T09:33:14.002Z,60.76
2019-05-09T09:38:20.701Z,61.91
2019-05-09T09:43:32.343Z,62.22
2019-05-09T09:48:39.440Z,62.27
2019-05-09T09:53:48.918Z,62.74
2019-05-09T09:59:08.174Z,62.45
2019-05-09T10:04:24.021Z,61.19
2019-05-09T10:09:27.748Z,56.88
2019-05-09T10:14:38.003Z,57.92
2019-05-09T10:19:52.666Z,57.20
2019-05-09T10:24:59.404Z,55.41
2019-05-09T10:30:06.218Z,54.93
2019-05-09T10:35:17.731Z,56.91
2019-05-09T10:40:30.182Z,56.19
2019-05-09T10:46:01.709Z,56.25
2019-05-09T10:51:10.492Z,57.72
2019-05-09T10:56:19.134Z,55.72
2019-05-09T11:01:24.727Z,53.68
2019-05-09T11:06:29.769Z,47.29
2019-05-09T11:11:34.854Z,47.27
2019-05-09T11:16:46.183Z,47.45
2019-05-09T11:21:47.877Z,49.85
2019-05-09T11:26:53.618Z,50.61
2019-05-09T11:31:59.417Z,51.06
2019-05-09T11:37:04.448Z,50.74
2019-05-09T11:42:09.502Z,48.54
2019-05-09T11:47:28.606Z,46.26
2019-05-09T11:52:21.318Z,44.20
2019-05-09T11:57:28.636Z,44.44
2019-05-09T12:02:33.489Z,43.80
2019-05-09T12:07:39.621Z,41.90
2019-05-09T12:12:44.692Z,41.89
2019-05-09T12:17:57.864Z,41.02
2019-05-09T12:22:58.431Z,43.73
2019-05-09T12:28:03.339Z,44.08
2019-05-09T12:33:08.815Z,43.92
2019-05-09T12:38:14.029Z,41.23
2019-05-09T12:43:19.142Z,38.91
2019-05-09T12:48:27.939Z,37.93
2019-05-09T12:53:32.593Z,36.28
2019-05-09T12:58:37.660Z,36.32
2019-05-09T13:03:42.794Z,37.66
2019-05-09T13:08:48.137Z,38.17
2019-05-09T13:13:53.750Z,40.12
2019-05-09T13:19:04.207Z,40.08
2019-05-09T13:24:10.701Z,36.66
2019-05-09T13:29:15.844Z,36.53
2019-05-09T13:34:21.300Z,36.21
2019-05-09T13:39:27.942Z,37.67
2019-05-09T13:44:33.154Z,38.24
2019-05-09T13:49:39.621Z,38.35
2019-05-09T13:54:44.747Z,38.97
2019-05-09T13:59:50.360Z,37.84
2019-05-09T14:04:58.094Z,35.83
2019-05-09T14:10:02.278Z,35.34
2019-05-09T14:15:08.490Z,36.97
2019-05-09T14:20:13.963Z,37.60
2019-05-09T14:25:19.722Z,37.79
2019-05-09T14:30:27.378Z,37.62
2019-05-09T14:35:33.556Z,38.37
2019-05-09T14:40:38.780Z,39.32
2019-05-09T14:45:43.881Z,39.74
2019-05-09T14:50:49.530Z,40.67
2019-05-09T14:55:55.127Z,40.86
2019-05-09T15:01:00.902Z,41.28
2019-05-09T15:06:10.422Z,42.43
2019-05-09T15:11:17.925Z,42.41
2019-05-09T15:16:22.666Z,42.91
2019-05-09T15:21:28.117Z,42.74
2019-05-09T15:26:33.331Z,42.60
2019-05-09T15:31:39.361Z,44.09
2019-05-09T15:36:44.474Z,43.66
2019-05-09T15:41:49.542Z,43.88
2019-05-09T15:46:59.951Z,45.88
2019-05-09T15:52:07.352Z,45.47
2019-05-09T15:57:11.846Z,45.56
2019-05-09T16:02:19.000Z,46.75
2019-05-09T16:07:24.075Z,45.69
2019-05-09T16:12:29.693Z,46.37
2019-05-09T16:17:34.777Z,46.04
2019-05-09T16:22:40.009Z,45.87
2019-05-09T16:27:45.317Z,45.20
2019-05-09T16:32:51.522Z,46.06
2019-05-09T16:38:05.276Z,46.20
2019-05-09T16:43:03.812Z,47.61
2019-05-09T16:48:11.441Z,50.65
2019-05-09T16:53:18.414Z,51.79
2019-05-09T16:58:22.941Z,52.94
2019-05-09T17:03:28.454Z,53.60
2019-05-09T17:08:38.792Z,53.15
2019-05-09T17:13:43.830Z,53.56
2019-05-09T17:18:48.913Z,53.75
2019-05-09T17:23:55.549Z,54.72
2019-05-09T17:29:05.005Z,55.20
2019-05-09T17:34:10.372Z,55.82
2019-05-09T17:39:15.383Z,56.49
2019-05-09T17:44:20.433Z,56.15
2019-05-09T17:49:27.881Z,56.13
2019-05-09T17:54:32.920Z,56.34
2019-05-09T17:59:39.215Z,55.97
2019-05-09T18:04:44.496Z,55.85
2019-05-09T18:09:58.019Z,56.44
2019-05-09T18:15:02.701Z,56.39
2019-05-09T18:20:09.768Z,56.80
2019-05-09T18:25:18.770Z,56.92
2019-05-09T18:30:24.177Z,56.96
2019-05-09T18:35:29.994Z,56.47
2019-05-09T18:40:35.124Z,56.66
2019-05-09T18:45:40.222Z,57.09
2019-05-09T18:50:45.551Z,57.32
2019-05-09T18:55:50.640Z,58.03
2019-05-09T19:00:55.786Z,58.07
2019-05-09T19:06:01.980Z,58.77
2019-05-09T19:11:07.091Z,59.00
2019-05-09T19:16:20.590Z,59.64
2019-05-09T19:21:32.669Z,59.61
2019-05-09T19:26:37.871Z,59.48
2019-05-09T19:31:43.023Z,59.90
2019-05-09T19:36:48.549Z,60.36
2019-05-09T19:41:53.649Z,61.10
2019-05-09T19:47:01.465Z,61.77
2019-05-09T19:52:05.437Z,62.98
2019-05-09T19:57:10.437Z,63.48
2019-05-09T20:02:15.741Z,64.28
2019-05-09T20:07:20.825Z,64.73
2019-05-09T20:12:51.257Z,65.15
2019-05-09T20:17:56.285Z,65.41
2019-05-09T20:23:01.642Z,66.05
2019-05-09T20:28:06.714Z,65.33
2019-05-09T20:33:12.142Z,65.20
2019-05-09T20:38:17.299Z,64.75
2019-05-09T20:43:22.557Z,64.85
2019-05-09T20:48:29.021Z,65.43
2019-05-09T20:53:34.249Z,65.96
2019-05-09T20:58:39.429Z,66.52
2019-05-09T21:03:58.889Z,66.27
2019-05-09T21:08:52.081Z,66.99
2019-05-09T21:13:57.329Z,67.49
2019-05-09T21:19:02.717Z,67.65
2019-05-09T21:24:07.943Z,68.60
2019-05-09T21:29:13.870Z,69.76
2019-05-09T21:34:19.499Z,71.31
2019-05-09T21:39:24.481Z,72.23
2019-05-09T21:44:29.570Z,73.46
2019-05-09T21:49:34.613Z,74.56
2019-05-09T21:54:39.641Z,74.91
2019-05-09T21:59:45.120Z,76.03
2019-05-09T22:04:50.321Z,76.61
2019-05-09T22:09:55.405Z,76.88
2019-05-09T22:15:03.704Z,77.56
2019-05-09T22:20:09.620Z,78.61
2019-05-09T22:25:16.163Z,78.49
2019-05-09T22:30:21.314Z,79.48
2019-05-09T22:35:26.320Z,80.37
2019-05-09T22:40:31.867Z,80.90
2019-05-09T22:45:36.884Z,81.34
2019-05-09T22:50:41.919Z,81.82
2019-05-09T22:55:46.939Z,82.79
2019-05-09T23:00:53.033Z,83.15
2019-05-09T23:05:58.088Z,83.33
2019-05-09T23:11:03.148Z,83.99
2019-05-09T23:16:08.194Z,84.21
2019-05-09T23:21:13.642Z,84.51
2019-05-09T23:26:21.152Z,85.00
2019-05-09T23:31:43.761Z,84.93
2019-05-09T23:36:48.749Z,85.15
2019-05-09T23:41:53.877Z,85.99
2019-05-09T23:46:58.942Z,86.57
2019-05-09T23:52:03.972Z,87.23
2019-05-09T23:57:27.467Z,87.74
